Time;durP1;ratioP1;P1;durP2;ratioP2;P2;SDS_P1;SDS_P2;PMS_P1;PMS_P2;Temp;Humidity;BMP_temperature;BMP_pressure;BME280_temperature;BME280_humidity;BME280_pressure;Samples;Min_cycle;Max_cycle;Signal;HPM_P1;HPM_P2
2022/05/18 00:01:22;;;;;;;15.63;14.37;;;18.40;99.90;;;;;;5114149;28;20459;-76
2022/05/18 00:03:52;;;;;;;16.13;14.53;;;18.30;99.90;;;;;;5113876;28;20952;-75
2022/05/18 00:06:20;;;;;;;14.30;13.20;;;18.30;99.90;;;;;;5114188;28;20795;-75
2022/05/18 00:08:48;;;;;;;14.90;13.70;;;18.30;99.90;;;;;;5113547;28;20443;-75
2022/05/18 00:11:18;;;;;;;15.60;14.30;;;18.30;99.90;;;;;;5112550;28;20463;-76
2022/05/18 00:13:49;;;;;;;15.30;14.07;;;18.30;99.90;;;;;;5114107;28;20508;-75
2022/05/18 00:16:20;;;;;;;16.30;14.90;;;18.30;99.90;;;;;;5112553;28;20478;-74
2022/05/18 00:18:49;;;;;;;15.87;14.47;;;18.30;99.90;;;;;;5112472;28;20471;-74
2022/05/18 00:21:17;;;;;;;14.50;13.30;;;18.20;99.90;;;;;;5112465;28;20465;-75
2022/05/18 00:23:46;;;;;;;14.53;13.30;;;18.20;99.90;;;;;;5112507;28;20858;-75
2022/05/18 00:26:14;;;;;;;15.13;13.83;;;18.20;99.90;;;;;;5112516;28;20530;-75
2022/05/18 00:28:42;;;;;;;15.07;13.87;;;18.20;99.90;;;;;;5112445;28;20450;-76
2022/05/18 00:31:13;;;;;;;13.77;12.67;;;18.20;99.90;;;;;;5113602;28;20454;-75
2022/05/18 00:33:43;;;;;;;14.03;12.93;;;18.20;99.90;;;;;;5112495;28;20443;-75
2022/05/18 00:36:11;;;;;;;14.37;13.17;;;18.20;99.90;;;;;;5112412;28;20469;-75
2022/05/18 00:38:40;;;;;;;14.70;13.60;;;18.20;99.90;;;;;;5112152;28;20441;-74
2022/05/18 00:41:08;;;;;;;14.80;13.60;;;18.10;99.90;;;;;;5113867;28;20506;-75
2022/05/18 00:43:40;;;;;;;14.43;13.17;;;18.10;99.90;;;;;;5113655;28;20440;-75
2022/05/18 00:46:10;;;;;;;15.67;14.37;;;18.10;99.90;;;;;;5114223;28;20420;-75
2022/05/18 00:48:39;;;;;;;14.10;12.90;;;18.10;99.90;;;;;;5112307;28;20443;-75
2022/05/18 00:51:13;;;;;;;15.30;14.17;;;18.10;99.90;;;;;;5112129;28;20461;-74
2022/05/18 00:53:45;;;;;;;15.03;13.80;;;18.10;99.90;;;;;;5112294;28;20436;-74
2022/05/18 00:56:20;;;;;;;14.20;13.20;;;18.10;99.90;;;;;;5116274;28;20795;-75
2022/05/18 00:58:53;;;;;;;14.60;13.50;;;18.10;99.90;;;;;;5117398;28;20500;-75
2022/05/18 01:01:21;;;;;;;15.30;13.97;;;18.10;99.90;;;;;;5117620;28;20808;-75
2022/05/18 01:03:52;;;;;;;15.27;13.30;;;18.00;99.90;;;;;;5116073;28;20888;-75
2022/05/18 01:06:28;;;;;;;14.20;13.10;;;18.10;99.90;;;;;;5116088;28;20492;-74
2022/05/18 01:09:02;;;;;;;15.13;13.83;;;18.00;99.90;;;;;;5117307;27;20771;-75
2022/05/18 01:11:32;;;;;;;14.87;13.47;;;18.10;99.90;;;;;;5115898;28;20889;-76
2022/05/18 01:14:00;;;;;;;14.00;13.00;;;18.00;99.90;;;;;;5115935;28;20461;-75
2022/05/18 01:16:29;;;;;;;14.07;12.97;;;18.00;99.90;;;;;;5117062;28;20442;-75
2022/05/18 01:18:59;;;;;;;12.90;11.83;;;18.10;99.90;;;;;;5115717;28;20474;-75
2022/05/18 01:21:36;;;;;;;15.23;13.80;;;18.00;99.90;;;;;;5115668;28;20466;-75
2022/05/18 01:24:15;;;;;;;13.87;12.67;;;18.00;99.90;;;;;;5117021;28;20506;-75
2022/05/18 01:26:47;;;;;;;15.13;13.93;;;18.00;99.90;;;;;;5115721;28;20439;-75
2022/05/18 01:29:20;;;;;;;14.70;13.47;;;18.00;99.90;;;;;;5115680;28;20475;-76
2022/05/18 01:31:52;;;;;;;20.23;13.83;;;18.00;99.90;;;;;;5117056;28;20490;-75
2022/05/18 01:34:23;;;;;;;14.57;13.37;;;18.00;99.90;;;;;;5115559;28;20439;-74
2022/05/18 01:36:52;;;;;;;14.07;12.97;;;18.00;99.90;;;;;;5115531;28;20492;-74
2022/05/18 01:39:30;;;;;;;14.63;13.40;;;18.00;99.90;;;;;;5116403;28;20490;-75
2022/05/18 01:42:12;;;;;;;14.57;13.50;;;18.00;99.90;;;;;;5116620;28;20461;-74
2022/05/18 01:44:41;;;;;;;16.17;14.87;;;18.00;99.90;;;;;;5116626;28;20424;-74
2022/05/18 01:47:10;;;;;;;15.00;13.87;;;18.00;99.90;;;;;;5116478;28;20436;-74
2022/05/18 01:49:41;;;;;;;14.90;13.80;;;17.90;99.90;;;;;;5115568;28;21015;-74
2022/05/18 01:52:10;;;;;;;14.50;13.30;;;18.00;99.90;;;;;;5116453;28;20554;-75
2022/05/18 01:54:40;;;;;;;15.77;14.47;;;17.90;99.90;;;;;;5116460;28;20527;-74
2022/05/18 01:57:10;;;;;;;14.37;13.27;;;17.90;99.90;;;;;;5115130;28;20427;-74
2022/05/18 01:59:39;;;;;;;14.43;13.23;;;17.90;99.90;;;;;;5114970;28;20480;-74
2022/05/18 02:02:12;;;;;;;15.50;14.20;;;17.90;99.90;;;;;;5116215;28;20459;-75
2022/05/18 02:04:40;;;;;;;15.90;14.60;;;17.90;99.90;;;;;;5114948;28;20455;-75
2022/05/18 02:07:09;;;;;;;15.13;14.03;;;17.90;99.90;;;;;;5114854;28;20444;-74
2022/05/18 02:09:37;;;;;;;15.33;14.13;;;17.90;99.90;;;;;;5116210;28;20439;-74
2022/05/18 02:12:07;;;;;;;15.33;14.13;;;17.90;99.90;;;;;;5116264;28;20452;-75
2022/05/18 02:14:37;;;;;;;14.83;13.70;;;17.90;99.90;;;;;;5114769;28;20464;-74
2022/05/18 02:17:06;;;;;;;15.67;14.37;;;17.90;99.90;;;;;;5114731;28;20443;-74
2022/05/18 02:19:34;;;;;;;15.73;14.43;;;17.80;99.90;;;;;;5114534;28;20470;-75
2022/05/18 02:22:02;;;;;;;14.80;13.50;;;17.80;99.90;;;;;;5115764;28;20998;-74
2022/05/18 02:24:30;;;;;;;16.73;15.33;;;17.80;99.90;;;;;;5115859;28;20463;-74
2022/05/18 02:26:58;;;;;;;16.50;15.10;;;17.80;99.90;;;;;;5115727;28;20489;-75
2022/05/18 02:29:27;;;;;;;15.73;14.43;;;17.80;99.90;;;;;;5115993;28;20971;-74
2022/05/18 02:31:56;;;;;;;16.93;15.33;;;17.80;99.90;;;;;;5115839;28;20984;-74
2022/05/18 02:34:25;;;;;;;18.13;16.53;;;17.70;99.90;;;;;;5115659;27;20459;-75
2022/05/18 02:36:53;;;;;;;17.03;15.63;;;17.70;99.90;;;;;;5114277;28;20451;-74
2022/05/18 02:39:21;;;;;;;16.37;15.03;;;17.70;99.90;;;;;;5115378;28;20475;-74
2022/05/18 02:41:49;;;;;;;17.97;16.57;;;17.70;99.90;;;;;;5114100;28;20471;-74
2022/05/18 02:44:18;;;;;;;17.40;15.90;;;17.70;99.90;;;;;;5115373;28;20435;-74
2022/05/18 02:46:47;;;;;;;18.30;16.80;;;17.60;99.90;;;;;;5115347;28;21005;-74
2022/05/18 02:49:17;;;;;;;18.80;17.20;;;17.70;99.90;;;;;;5114052;28;20421;-74
2022/05/18 02:51:45;;;;;;;17.23;15.77;;;17.60;99.90;;;;;;5114217;28;20972;-74
2022/05/18 02:57:02;;;;;;;18.70;17.20;;;17.60;99.90;;;;;;5115419;28;20497;-74
2022/05/18 02:59:31;;;;;;;18.43;16.93;;;17.60;99.90;;;;;;5115259;28;20473;-75
2022/05/18 03:01:59;;;;;;;17.70;16.20;;;17.60;99.90;;;;;;5113643;28;20455;-74
2022/05/18 03:04:30;;;;;;;18.73;17.10;;;17.60;99.90;;;;;;5115236;28;20454;-74
2022/05/18 03:06:59;;;;;;;18.70;17.10;;;17.60;99.90;;;;;;5114467;28;20515;-74
2022/05/18 03:09:27;;;;;;;18.17;16.57;;;17.60;99.90;;;;;;5115057;28;20530;-74
2022/05/18 03:11:56;;;;;;;18.67;17.07;;;17.60;99.90;;;;;;5115103;28;20443;-74
2022/05/18 03:14:25;;;;;;;20.43;18.70;;;17.50;99.90;;;;;;5114824;27;20449;-74
2022/05/18 03:16:53;;;;;;;19.57;17.80;;;17.50;99.90;;;;;;5114680;28;20842;-75
2022/05/18 03:19:23;;;;;;;17.20;15.70;;;17.50;99.90;;;;;;5113312;28;20826;-74
2022/05/18 03:24:38;;;;;;;18.20;16.80;;;17.50;99.90;;;;;;5113449;28;20535;-74
2022/05/18 03:27:07;;;;;;;19.13;17.63;;;17.50;99.90;;;;;;5113328;28;20744;-74
2022/05/18 03:29:35;;;;;;;19.47;17.90;;;17.50;99.90;;;;;;5114614;28;20451;-75
2022/05/18 03:32:04;;;;;;;20.87;19.00;;;17.50;99.90;;;;;;5114419;28;20458;-74
2022/05/18 03:34:33;;;;;;;20.40;18.70;;;17.50;99.90;;;;;;5114381;28;20444;-75
2022/05/18 03:37:03;;;;;;;19.93;18.13;;;17.50;99.90;;;;;;5113177;28;20446;-74
2022/05/18 03:39:31;;;;;;;19.30;17.80;;;17.40;99.90;;;;;;5114457;28;20499;-74
2022/05/18 03:41:59;;;;;;;20.47;18.77;;;17.40;99.90;;;;;;5114551;28;20460;-74
2022/05/18 03:44:28;;;;;;;19.43;17.70;;;17.40;99.90;;;;;;5112977;28;20977;-74
2022/05/18 03:46:56;;;;;;;20.50;18.80;;;17.40;99.90;;;;;;5114517;28;20504;-74
2022/05/18 03:49:24;;;;;;;20.07;18.37;;;17.40;99.90;;;;;;5112929;28;20989;-74
2022/05/18 03:51:53;;;;;;;19.63;17.93;;;17.40;99.90;;;;;;5114380;28;20433;-74
2022/05/18 03:54:22;;;;;;;20.43;18.73;;;17.30;99.90;;;;;;5113284;28;20447;-74
2022/05/18 03:56:50;;;;;;;19.83;18.13;;;17.30;99.90;;;;;;5114410;28;20959;-74
2022/05/18 03:59:19;;;;;;;20.70;19.10;;;17.30;99.90;;;;;;5114048;28;20985;-74
2022/05/18 04:01:47;;;;;;;19.10;17.60;;;17.30;99.90;;;;;;5114267;28;20434;-74
2022/05/18 04:04:15;;;;;;;20.30;18.60;;;17.20;99.90;;;;;;5113995;28;20444;-74
2022/05/18 04:06:44;;;;;;;20.10;18.40;;;17.30;99.90;;;;;;5114029;28;20406;-74
2022/05/18 04:09:12;;;;;;;20.20;18.50;;;17.20;99.90;;;;;;5113994;28;20431;-74
2022/05/18 04:11:41;;;;;;;19.77;18.17;;;17.20;99.90;;;;;;5113783;28;20459;-74
2022/05/18 04:14:09;;;;;;;21.53;19.63;;;17.20;99.90;;;;;;5112685;28;20435;-75
2022/05/18 04:16:38;;;;;;;21.80;19.90;;;17.20;99.90;;;;;;5113884;28;20431;-74
2022/05/18 04:19:06;;;;;;;20.60;19.00;;;17.20;99.90;;;;;;5113754;28;20540;-75
2022/05/18 04:21:34;;;;;;;20.67;18.80;;;17.20;99.90;;;;;;5113796;28;20481;-74
2022/05/18 04:24:03;;;;;;;20.00;18.40;;;17.20;99.90;;;;;;5113790;28;20433;-75
2022/05/18 04:26:31;;;;;;;21.80;20.00;;;17.20;99.90;;;;;;5114045;28;20442;-74
2022/05/18 04:29:00;;;;;;;20.60;18.87;;;17.20;99.90;;;;;;5113072;28;20486;-74
2022/05/18 04:31:28;;;;;;;20.90;18.80;;;17.20;99.90;;;;;;5116651;28;21009;-74
2022/05/18 04:33:57;;;;;;;21.33;19.40;;;17.20;99.90;;;;;;5118035;28;20484;-74
2022/05/18 04:36:25;;;;;;;21.50;19.70;;;17.20;99.90;;;;;;5116590;28;20446;-74
2022/05/18 04:38:53;;;;;;;21.63;19.97;;;17.20;99.90;;;;;;5116323;28;20537;-74
2022/05/18 04:41:22;;;;;;;20.80;19.10;;;17.20;99.90;;;;;;5118038;28;20483;-74
2022/05/18 04:43:50;;;;;;;21.87;20.07;;;17.20;99.90;;;;;;5116474;28;20426;-74
2022/05/18 04:46:19;;;;;;;21.60;19.73;;;17.20;99.90;;;;;;5117704;28;20435;-74
2022/05/18 04:48:47;;;;;;;20.80;19.00;;;17.20;99.90;;;;;;5117942;28;20464;-74
2022/05/18 04:51:16;;;;;;;20.87;19.00;;;17.20;99.90;;;;;;5116254;28;20498;-74
2022/05/18 04:53:44;;;;;;;21.50;19.70;;;17.20;99.90;;;;;;5116280;28;20439;-74
2022/05/18 04:56:12;;;;;;;19.97;18.27;;;17.20;99.90;;;;;;5116240;28;20453;-74
2022/05/18 04:58:40;;;;;;;20.80;19.10;;;17.20;99.90;;;;;;5117495;28;20518;-74
2022/05/18 05:01:09;;;;;;;20.17;18.40;;;17.30;99.90;;;;;;5116027;28;20479;-74
2022/05/18 05:03:39;;;;;;;19.90;18.20;;;17.20;99.90;;;;;;5116128;28;20444;-75
2022/05/18 05:06:07;;;;;;;20.37;18.73;;;17.30;99.90;;;;;;5117899;28;20427;-74
2022/05/18 05:08:37;;;;;;;19.80;18.00;;;17.30;99.90;;;;;;5116024;28;20526;-74
2022/05/18 05:11:07;;;;;;;20.47;18.70;;;17.30;99.90;;;;;;5117199;28;20447;-74
2022/05/18 05:13:36;;;;;;;21.87;20.07;;;17.30;99.90;;;;;;5115897;28;20461;-74
2022/05/18 05:16:07;;;;;;;21.77;19.97;;;17.40;99.90;;;;;;5115822;28;20447;-74
2022/05/18 05:18:36;;;;;;;21.87;20.00;;;17.40;99.90;;;;;;5117393;28;20426;-74
2022/05/18 05:21:06;;;;;;;21.00;19.10;;;17.40;99.90;;;;;;5115779;28;20475;-74
2022/05/18 05:23:34;;;;;;;21.33;19.47;;;17.40;99.90;;;;;;5115772;28;20477;-75
2022/05/18 05:26:03;;;;;;;19.97;18.30;;;17.50;99.90;;;;;;5115705;28;20447;-74
2022/05/18 05:28:31;;;;;;;20.70;18.90;;;17.50;99.90;;;;;;5115639;28;20434;-74
2022/05/18 05:31:02;;;;;;;21.90;19.97;;;17.50;99.90;;;;;;5115557;28;20477;-74
2022/05/18 05:33:30;;;;;;;20.07;18.30;;;17.60;99.90;;;;;;5117438;28;20445;-74
2022/05/18 05:35:59;;;;;;;21.13;19.53;;;17.70;99.90;;;;;;5115521;28;20426;-74
2022/05/18 05:38:29;;;;;;;21.03;19.13;;;17.70;99.90;;;;;;5116762;28;20490;-74
2022/05/18 05:40:59;;;;;;;20.17;18.50;;;17.90;99.90;;;;;;5116260;27;20987;-74
2022/05/18 05:43:28;;;;;;;19.13;17.60;;;18.00;99.90;;;;;;5116887;27;20846;-74
2022/05/18 05:45:58;;;;;;;22.00;20.30;;;18.20;99.90;;;;;;5116785;28;20435;-75
2022/05/18 05:48:26;;;;;;;22.10;20.10;;;18.40;99.90;;;;;;5116507;28;20471;-75
2022/05/18 05:50:55;;;;;;;18.87;17.37;;;18.60;99.90;;;;;;5115181;28;20459;-75
2022/05/18 05:53:23;;;;;;;19.60;17.93;;;18.70;99.90;;;;;;5115157;28;20475;-75
2022/05/18 05:55:53;;;;;;;18.47;17.07;;;19.00;99.90;;;;;;5116326;28;20443;-74
2022/05/18 05:58:23;;;;;;;17.67;16.20;;;19.20;99.90;;;;;;5116332;28;20480;-75
2022/05/18 06:00:51;;;;;;;18.03;16.63;;;19.50;99.90;;;;;;5114866;28;20515;-75
2022/05/18 06:03:20;;;;;;;17.63;16.10;;;19.50;99.90;;;;;;5116259;28;20786;-75
2022/05/18 06:05:48;;;;;;;17.87;16.37;;;19.60;99.90;;;;;;5114868;28;21021;-75
2022/05/18 06:08:16;;;;;;;19.10;17.73;;;19.70;99.90;;;;;;5116182;27;20513;-75
2022/05/18 06:10:44;;;;;;;17.73;16.10;;;20.00;99.90;;;;;;5114753;28;20450;-74
2022/05/18 06:13:14;;;;;;;17.80;16.20;;;20.20;99.90;;;;;;5114811;28;20514;-75
2022/05/18 06:15:43;;;;;;;17.83;16.23;;;20.50;99.90;;;;;;5116009;28;20432;-75
2022/05/18 06:18:12;;;;;;;16.93;15.63;;;20.70;99.90;;;;;;5115865;28;20869;-75
2022/05/18 06:20:47;;;;;;;16.60;15.20;;;21.00;99.90;;;;;;5114549;28;20455;-75
2022/05/18 06:23:17;;;;;;;15.87;14.67;;;21.30;99.90;;;;;;5114596;28;20445;-75
2022/05/18 06:25:46;;;;;;;15.10;13.83;;;21.50;99.90;;;;;;5115805;28;20475;-75
2022/05/18 06:28:16;;;;;;;15.80;14.50;;;21.80;99.90;;;;;;5114478;28;20834;-75
2022/05/18 06:30:44;;;;;;;14.43;13.23;;;22.00;99.90;;;;;;5115933;28;20522;-75
2022/05/18 06:33:13;;;;;;;14.70;13.50;;;22.20;99.90;;;;;;5114360;28;21005;-75
2022/05/18 06:35:41;;;;;;;13.80;12.60;;;22.40;99.90;;;;;;5115618;28;20431;-75
2022/05/18 06:38:13;;;;;;;14.77;13.47;;;22.70;99.90;;;;;;5115687;27;20500;-75
2022/05/18 06:43:30;;;;;;;15.87;14.47;;;23.10;99.90;;;;;;5114774;28;20432;-75
2022/05/18 06:45:59;;;;;;;17.50;15.90;;;23.30;99.90;;;;;;5114723;28;20518;-75
2022/05/18 06:48:28;;;;;;;14.13;12.83;;;23.50;99.90;;;;;;5114060;28;20446;-75
2022/05/18 06:51:17;;;;;;;12.80;11.80;;;23.70;99.90;;;;;;5115278;28;20559;-75
2022/05/18 06:53:46;;;;;;;12.00;10.80;;;23.80;99.90;;;;;;5113601;28;20435;-75
2022/05/18 06:56:14;;;;;;;14.73;13.33;;;24.00;99.90;;;;;;5115490;28;20518;-75
2022/05/18 06:58:44;;;;;;;13.97;12.67;;;24.10;99.90;;;;;;5115370;28;20432;-75
2022/05/18 07:01:18;;;;;;;13.07;11.90;;;24.30;99.90;;;;;;5115180;28;20520;-75
2022/05/18 07:03:46;;;;;;;10.53;9.73;;;24.40;99.90;;;;;;5115004;28;20435;-76
2022/05/18 07:06:17;;;;;;;12.50;11.20;;;24.50;99.90;;;;;;5114952;28;20976;-75
2022/05/18 07:08:45;;;;;;;10.70;9.90;;;24.50;99.90;;;;;;5113850;28;20958;-75
2022/05/18 07:11:14;;;;;;;10.30;9.40;;;24.70;99.90;;;;;;5113566;28;20459;-75
2022/05/18 07:13:46;;;;;;;11.90;10.80;;;24.80;99.90;;;;;;5115149;28;20463;-76
2022/05/18 07:16:14;;;;;;;10.87;10.00;;;24.90;99.90;;;;;;5114984;28;20451;-75
2022/05/18 07:18:42;;;;;;;10.23;9.43;;;25.20;99.90;;;;;;5113605;28;20516;-76
2022/05/18 07:21:10;;;;;;;10.23;9.43;;;25.30;99.90;;;;;;5113448;28;21015;-76
2022/05/18 07:23:39;;;;;;;10.83;9.83;;;25.50;99.90;;;;;;5115121;27;20794;-77
2022/05/18 07:26:07;;;;;;;12.10;10.90;;;25.60;99.90;;;;;;5113893;28;20863;-76
2022/05/18 07:28:36;;;;;;;13.70;12.60;;;25.80;99.90;;;;;;5114860;28;20865;-76
2022/05/18 07:31:06;;;;;;;10.47;9.40;;;25.90;99.90;;;;;;5114479;28;20954;-77
2022/05/18 07:33:35;;;;;;;10.80;9.80;;;26.00;99.90;;;;;;5113273;28;20443;-76
2022/05/18 07:36:05;;;;;;;9.03;8.00;;;26.10;99.90;;;;;;5113188;28;20444;-76
2022/05/18 07:38:34;;;;;;;9.70;8.73;;;26.20;99.90;;;;;;5113094;28;20455;-76
2022/05/18 07:41:07;;;;;;;9.67;8.67;;;26.20;99.90;;;;;;5114300;28;20475;-76
2022/05/18 07:43:36;;;;;;;8.00;7.30;;;26.30;99.90;;;;;;5113169;28;20439;-76
2022/05/18 07:46:07;;;;;;;8.13;7.43;;;26.40;99.90;;;;;;5112952;28;20479;-76
2022/05/18 07:48:36;;;;;;;8.97;8.27;;;26.50;99.70;;;;;;5113049;28;20940;-76
2022/05/18 07:51:05;;;;;;;8.60;7.70;;;26.50;99.50;;;;;;5114283;28;20885;-76
2022/05/18 07:53:33;;;;;;;9.53;8.03;;;26.60;99.40;;;;;;5113017;28;20454;-76
2022/05/18 07:56:01;;;;;;;8.03;7.43;;;26.80;99.30;;;;;;5112958;28;20493;-76
2022/05/18 07:58:30;;;;;;;9.93;8.93;;;26.90;99.10;;;;;;5112932;28;20431;-76
2022/05/18 08:00:58;;;;;;;8.30;7.50;;;27.00;99.00;;;;;;5114595;28;20471;-77
2022/05/18 08:03:27;;;;;;;10.17;9.20;;;27.10;98.90;;;;;;5112678;28;20447;-76
2022/05/18 08:05:55;;;;;;;8.73;8.00;;;27.20;98.80;;;;;;5114079;28;20447;-76
2022/05/18 08:08:24;;;;;;;8.17;7.40;;;27.40;98.70;;;;;;5114310;28;20854;-76
2022/05/18 08:16:25;;;;;;;7.83;7.13;;;27.70;98.10;;;;;;5114555;28;20779;-77
2022/05/18 08:18:54;;;;;;;8.03;7.33;;;27.80;97.90;;;;;;5112799;28;20450;-77
2022/05/18 08:21:22;;;;;;;8.17;7.37;;;27.90;97.80;;;;;;5113806;28;20975;-77
2022/05/18 08:23:52;;;;;;;10.53;8.80;;;27.90;97.60;;;;;;5113909;28;20435;-77
2022/05/18 08:26:25;;;;;;;6.70;6.20;;;28.00;97.50;;;;;;5112437;28;20462;-77
2022/05/18 08:28:54;;;;;;;12.83;10.27;;;28.10;97.30;;;;;;5114407;28;20796;-76
2022/05/18 08:31:23;;;;;;;8.60;7.87;;;28.20;97.20;;;;;;5112513;28;20491;-77
2022/05/18 08:33:54;;;;;;;7.30;6.60;;;28.30;97.10;;;;;;5113914;28;20439;-77
2022/05/18 08:36:24;;;;;;;7.93;6.63;;;28.30;96.90;;;;;;5112930;28;20485;-77
2022/05/18 08:38:53;;;;;;;6.13;5.63;;;28.40;96.70;;;;;;5113898;28;21001;-77
2022/05/18 08:41:23;;;;;;;7.07;6.20;;;28.50;96.50;;;;;;5113850;28;20467;-77
2022/05/18 08:43:55;;;;;;;8.90;8.20;;;28.60;96.20;;;;;;5114351;28;20416;-77
2022/05/18 08:46:35;;;;;;;7.43;5.80;;;28.70;96.00;;;;;;5113564;28;20435;-77
2022/05/18 08:49:12;;;;;;;8.40;6.23;;;28.70;95.50;;;;;;5114124;28;20521;-77
2022/05/18 08:51:49;;;;;;;6.60;6.00;;;28.60;95.30;;;;;;5113659;28;20523;-77
2022/05/18 08:54:43;;;;;;;6.20;5.70;;;28.60;95.30;;;;;;5112481;28;21011;-77
2022/05/18 08:57:19;;;;;;;5.87;5.40;;;28.70;95.20;;;;;;5114275;28;20535;-77
2022/05/18 08:59:53;;;;;;;6.30;4.93;;;28.70;95.00;;;;;;5112386;28;20443;-77
2022/05/18 09:02:33;;;;;;;5.93;5.33;;;28.80;95.00;;;;;;5112122;28;20471;-76
2022/05/18 09:05:06;;;;;;;5.73;5.23;;;28.80;94.70;;;;;;5113952;28;20430;-76
2022/05/18 09:08:06;;;;;;;5.90;5.40;;;28.90;94.60;;;;;;5112765;28;20443;-77
2022/05/18 09:10:40;;;;;;;7.60;5.90;;;29.00;94.50;;;;;;5112520;28;20827;-77
2022/05/18 09:13:08;;;;;;;6.33;5.73;;;29.10;94.50;;;;;;5113932;28;20442;-77
2022/05/18 09:15:45;;;;;;;6.43;5.93;;;29.10;94.40;;;;;;5114929;28;20431;-76
2022/05/18 09:18:23;;;;;;;6.20;5.60;;;29.20;94.20;;;;;;5117891;28;20451;-76
2022/05/18 09:21:01;;;;;;;7.33;5.57;;;29.30;94.10;;;;;;5115946;28;20883;-76
2022/05/18 09:23:47;;;;;;;5.50;5.00;;;29.40;93.90;;;;;;5116872;28;20455;-77
2022/05/18 09:26:44;;;;;;;7.60;6.90;;;29.40;93.70;;;;;;5116325;28;20439;-77
2022/05/18 09:29:20;;;;;;;6.33;5.83;;;29.50;93.60;;;;;;5116327;28;20520;-77
2022/05/18 09:32:08;;;;;;;6.60;5.40;;;29.60;93.60;;;;;;5116114;28;20826;-76
2022/05/18 09:34:50;;;;;;;4.93;4.53;;;29.60;93.30;;;;;;5116125;28;20455;-77
2022/05/18 09:37:29;;;;;;;5.63;5.10;;;29.70;93.40;;;;;;5116203;28;20439;-76
2022/05/18 09:40:03;;;;;;;5.60;5.10;;;29.70;93.20;;;;;;5117024;28;20808;-77
2022/05/18 09:42:35;;;;;;;6.07;5.57;;;29.80;93.20;;;;;;5117101;28;21052;-77
2022/05/18 09:45:07;;;;;;;5.40;4.90;;;29.80;93.10;;;;;;5115786;28;20843;-76
2022/05/18 09:47:39;;;;;;;5.80;5.30;;;29.90;93.10;;;;;;5117292;28;20889;-77
2022/05/18 09:50:09;;;;;;;5.30;4.90;;;29.90;93.00;;;;;;5115754;28;20471;-77
2022/05/18 09:52:41;;;;;;;8.40;5.60;;;30.00;92.90;;;;;;5115440;28;20471;-76
2022/05/18 09:55:12;;;;;;;5.20;4.80;;;30.10;92.50;;;;;;5117184;28;20538;-77
2022/05/18 09:57:49;;;;;;;6.23;5.50;;;30.10;92.50;;;;;;5115577;28;20443;-76
2022/05/18 10:00:20;;;;;;;5.23;4.73;;;30.10;92.40;;;;;;5115421;28;20457;-76
2022/05/18 10:08:36;;;;;;;9.87;8.87;;;30.20;91.80;;;;;;5079824;28;20863;-77
2022/05/18 10:11:09;;;;;;;4.90;4.50;;;30.30;91.70;;;;;;5115690;28;20538;-77
2022/05/18 10:13:43;;;;;;;4.93;4.43;;;30.40;91.50;;;;;;5115080;28;20496;-76
2022/05/18 10:16:17;;;;;;;4.53;4.10;;;30.40;91.20;;;;;;5116447;28;20472;-76
2022/05/18 10:18:49;;;;;;;5.10;4.60;;;30.40;91.10;;;;;;5115020;28;20491;-77
2022/05/18 10:21:26;;;;;;;5.13;4.50;;;30.50;91.00;;;;;;5114847;28;21003;-77
2022/05/18 10:24:02;;;;;;;5.80;4.30;;;30.50;90.90;;;;;;5115004;28;20509;-77
2022/05/18 10:26:33;;;;;;;6.57;5.17;;;30.60;90.80;;;;;;5115563;28;20419;-76
2022/05/18 10:29:05;;;;;;;4.60;4.20;;;30.60;90.90;;;;;;5114770;28;20853;-76
2022/05/18 10:31:36;;;;;;;5.13;3.80;;;30.70;91.10;;;;;;5116103;28;20541;-76
2022/05/18 10:34:24;;;;;;;5.70;4.30;;;30.80;90.60;;;;;;5114781;28;20916;-76
2022/05/18 10:36:55;;;;;;;6.00;4.03;;;30.80;90.20;;;;;;5114888;28;20447;-76
2022/05/18 10:39:39;;;;;;;4.83;4.27;;;30.90;90.20;;;;;;5114490;28;20558;-76
2022/05/18 10:42:17;;;;;;;6.50;4.00;;;30.90;89.70;;;;;;5116146;28;20490;-76
2022/05/18 10:44:46;;;;;;;4.93;4.03;;;30.90;89.00;;;;;;5114611;28;20443;-77
2022/05/18 10:47:29;;;;;;;4.23;3.57;;;31.00;88.80;;;;;;5114405;28;20443;-76
2022/05/18 10:50:28;;;;;;;5.00;3.30;;;31.00;88.00;;;;;;5114531;28;20431;-77
2022/05/18 10:53:00;;;;;;;5.17;3.53;;;31.00;86.90;;;;;;5036409;28;20569;-76
2022/05/18 10:55:32;;;;;;;3.60;3.30;;;31.00;87.00;;;;;;5104040;28;20477;-77
2022/05/18 10:58:03;;;;;;;10.03;8.83;;;31.10;86.80;;;;;;5115534;28;20502;-77
2022/05/18 11:00:40;;;;;;;3.97;3.67;;;31.10;86.90;;;;;;5113884;28;20443;-76
2022/05/18 11:03:17;;;;;;;4.43;4.00;;;31.20;86.80;;;;;;5115392;27;20858;-77
2022/05/18 11:05:51;;;;;;;4.60;3.70;;;31.20;86.20;;;;;;5115430;28;20469;-76
2022/05/18 11:08:21;;;;;;;7.80;3.43;;;31.20;85.90;;;;;;5113778;28;20940;-76
2022/05/18 11:10:58;;;;;;;3.83;2.97;;;31.20;86.10;;;;;;5115184;28;20423;-76
2022/05/18 11:13:34;;;;;;;5.00;3.70;;;31.20;86.00;;;;;;5113705;28;20431;-76
2022/05/18 11:16:11;;;;;;;4.10;3.20;;;31.30;85.50;;;;;;5113588;28;20466;-76
2022/05/18 11:18:49;;;;;;;3.33;3.03;;;31.30;84.60;;;;;;5115237;28;20480;-76
2022/05/18 11:21:28;;;;;;;5.93;4.37;;;31.30;83.80;;;;;;5118741;28;20451;-82
2022/05/18 11:24:07;;;;;;;3.67;3.27;;;31.30;83.60;;;;;;5124915;28;21024;-80
2022/05/18 11:26:50;;;;;;;8.60;3.93;;;31.20;83.80;;;;;;5120556;28;20822;-81
2022/05/18 11:29:54;;;;;;;4.07;3.47;;;31.30;83.60;;;;;;5117396;28;20474;-77
2022/05/18 11:32:32;;;;;;;4.50;3.20;;;31.30;83.90;;;;;;5122662;28;20505;-81
2022/05/18 11:35:25;;;;;;;3.30;3.00;;;31.30;83.00;;;;;;5124025;28;20447;-81
2022/05/18 11:38:13;;;;;;;5.53;3.70;;;31.30;82.10;;;;;;5116201;28;20455;-78
2022/05/18 11:40:49;;;;;;;4.10;3.00;;;31.30;81.60;;;;;;5116212;28;20455;-78
2022/05/18 11:43:35;;;;;;;3.47;3.17;;;31.30;81.40;;;;;;5115266;28;20455;-78
2022/05/18 11:46:24;;;;;;;4.23;2.97;;;31.30;80.30;;;;;;5114973;28;20507;-79
2022/05/18 11:49:09;;;;;;;4.93;3.10;;;31.30;80.20;;;;;;5114741;28;20436;-77
2022/05/18 11:51:48;;;;;;;6.10;5.00;;;31.30;79.90;;;;;;5115266;28;20516;-79
2022/05/18 11:54:30;;;;;;;6.03;3.57;;;31.30;79.40;;;;;;5115589;28;20956;-79
2022/05/18 11:57:05;;;;;;;4.33;3.93;;;31.40;78.90;;;;;;5117083;28;20454;-79
2022/05/18 11:59:56;;;;;;;5.97;3.20;;;31.50;78.60;;;;;;5115040;28;20492;-79
2022/05/18 12:02:52;;;;;;;3.83;3.53;;;31.50;78.40;;;;;;5114889;28;20884;-79
2022/05/18 12:05:42;;;;;;;3.67;3.23;;;31.50;78.30;;;;;;5098968;28;20487;-79
2022/05/18 12:08:29;;;;;;;3.77;3.47;;;31.60;78.70;;;;;;5112072;28;20439;-78
2022/05/18 12:11:05;;;;;;;6.93;3.63;;;31.60;78.60;;;;;;5114507;28;20565;-78
2022/05/18 12:13:46;;;;;;;5.30;3.20;;;31.60;78.70;;;;;;5116845;28;20418;-78
2022/05/18 12:16:24;;;;;;;4.43;3.10;;;31.60;78.10;;;;;;5116427;28;20537;-79
2022/05/18 12:19:02;;;;;;;4.60;3.77;;;31.50;77.90;;;;;;5115092;28;20427;-79
2022/05/18 12:21:37;;;;;;;3.77;3.40;;;31.40;77.40;;;;;;5116851;28;20455;-79
2022/05/18 12:24:07;;;;;;;4.67;4.17;;;31.30;77.10;;;;;;5115339;28;20470;-78
2022/05/18 12:26:39;;;;;;;6.60;3.90;;;31.30;77.40;;;;;;5116493;28;20827;-78
2022/05/18 12:29:09;;;;;;;4.77;3.57;;;31.20;77.70;;;;;;5114382;28;20842;-77
2022/05/18 12:31:39;;;;;;;6.00;4.10;;;31.30;77.90;;;;;;5113281;28;20820;-78
2022/05/18 12:34:19;;;;;;;4.20;3.77;;;31.20;77.90;;;;;;5113825;28;20431;-78
2022/05/18 12:36:53;;;;;;;5.60;5.10;;;31.20;78.40;;;;;;5114194;28;20451;-76
2022/05/18 12:39:40;;;;;;;4.17;3.70;;;31.30;78.40;;;;;;5114636;28;20553;-78
2022/05/18 12:42:11;;;;;;;4.60;3.43;;;31.30;78.30;;;;;;5116250;28;20459;-79
2022/05/18 12:44:42;;;;;;;3.63;3.30;;;31.30;78.40;;;;;;5115464;28;20465;-78
2022/05/18 12:47:22;;;;;;;3.30;2.73;;;31.30;78.10;;;;;;5113742;28;20515;-77
2022/05/18 12:49:57;;;;;;;4.40;2.87;;;31.40;76.90;;;;;;5114436;28;20804;-77
2022/05/18 12:52:43;;;;;;;4.00;2.07;;;31.40;76.30;;;;;;5118701;28;20490;-77
2022/05/18 12:55:38;;;;;;;7.10;6.43;;;31.50;75.00;;;;;;5119343;28;20419;-77
2022/05/18 12:58:26;;;;;;;4.47;3.17;;;31.60;74.00;;;;;;5104086;28;20465;-80
2022/05/18 13:01:04;;;;;;;6.30;2.83;;;31.70;73.20;;;;;;5122430;28;20446;-80
2022/05/18 13:03:50;;;;;;;3.20;2.50;;;31.70;72.60;;;;;;5122765;28;20512;-80
2022/05/18 13:06:24;;;;;;;3.53;3.10;;;31.80;72.10;;;;;;5123190;28;20506;-80
2022/05/18 13:09:04;;;;;;;2.67;2.47;;;31.80;72.40;;;;;;5123358;27;20423;-80
2022/05/18 13:11:41;;;;;;;2.93;2.23;;;31.90;72.40;;;;;;5123183;28;20499;-81
2022/05/18 13:14:44;;;;;;;3.13;2.30;;;31.90;71.50;;;;;;5121566;28;20423;-80
2022/05/18 13:17:22;;;;;;;2.70;2.30;;;31.90;70.80;;;;;;5122018;28;20534;-79
2022/05/18 13:20:16;;;;;;;2.53;2.10;;;31.90;70.20;;;;;;5122020;28;20486;-80
2022/05/18 13:22:59;;;;;;;4.00;2.10;;;31.90;69.40;;;;;;5122311;28;20463;-81